sensor_id;sensor_type;location;lat;lon;timestamp;P1;durP1;ratioP1;P2;durP2;ratioP2
30133;SDS011;16946;49.984;10.672;2023-03-05T00:00:13;14.07;;;9.27;;
30133;SDS011;16946;49.984;10.672;2023-03-05T00:00:45;14.95;;;8.65;;
30133;SDS011;16946;49.984;10.672;2023-03-05T00:01:16;14.33;;;7.90;;
30133;SDS011;16946;49.984;10.672;2023-03-05T00:01:48;13.00;;;7.82;;
30133;SDS011;16946;49.984;10.672;2023-03-05T00:02:19;11.83;;;7.13;;
30133;SDS011;16946;49.984;10.672;2023-03-05T00:02:49;9.90;;;6.53;;
30133;SDS011;16946;49.984;10.672;2023-03-05T00:03:20;9.90;;;6.93;;
30133;SDS011;16946;49.984;10.672;2023-03-05T00:03:51;12.67;;;7.57;;
30133;SDS011;16946;49.984;10.672;2023-03-05T00:04:23;11.10;;;6.95;;
30133;SDS011;16946;49.984;10.672;2023-03-05T00:04:53;9.87;;;6.43;;
30133;SDS011;16946;49.984;10.672;2023-03-05T00:05:24;10.57;;;6.87;;
30133;SDS011;16946;49.984;10.672;2023-03-05T00:05:55;9.83;;;5.53;;
30133;SDS011;16946;49.984;10.672;2023-03-05T00:06:27;10.07;;;5.20;;
30133;SDS011;16946;49.984;10.672;2023-03-05T00:06:58;9.55;;;5.63;;
30133;SDS011;16946;49.984;10.672;2023-03-05T00:07:29;8.07;;;4.47;;
30133;SDS011;16946;49.984;10.672;2023-03-05T00:07:59;4.97;;;3.53;;
30133;SDS011;16946;49.984;10.672;2023-03-05T00:08:30;7.23;;;4.03;;
30133;SDS011;16946;49.984;10.672;2023-03-05T00:09:02;6.95;;;4.32;;
30133;SDS011;16946;49.984;10.672;2023-03-05T00:09:33;8.85;;;4.47;;
30133;SDS011;16946;49.984;10.672;2023-03-05T00:10:04;6.53;;;3.70;;
30133;SDS011;16946;49.984;10.672;2023-03-05T00:10:35;6.03;;;4.13;;
30133;SDS011;16946;49.984;10.672;2023-03-05T00:11:07;5.90;;;3.87;;
30133;SDS011;16946;49.984;10.672;2023-03-05T00:11:39;7.70;;;4.20;;
30133;SDS011;16946;49.984;10.672;2023-03-05T00:12:09;8.70;;;4.70;;
30133;SDS011;16946;49.984;10.672;2023-03-05T00:12:40;8.57;;;4.53;;
30133;SDS011;16946;49.984;10.672;2023-03-05T00:13:10;6.60;;;4.00;;
30133;SDS011;16946;49.984;10.672;2023-03-05T00:13:41;9.53;;;4.33;;
30133;SDS011;16946;49.984;10.672;2023-03-05T00:14:12;7.17;;;4.17;;
30133;SDS011;16946;49.984;10.672;2023-03-05T00:14:42;7.63;;;4.23;;
30133;SDS011;16946;49.984;10.672;2023-03-05T00:15:13;5.50;;;3.93;;
30133;SDS011;16946;49.984;10.672;2023-03-05T00:15:43;6.03;;;3.87;;
30133;SDS011;16946;49.984;10.672;2023-03-05T00:16:14;5.33;;;3.60;;
30133;SDS011;16946;49.984;10.672;2023-03-05T00:16:45;7.87;;;3.40;;
30133;SDS011;16946;49.984;10.672;2023-03-05T00:17:15;5.73;;;3.00;;
30133;SDS011;16946;49.984;10.672;2023-03-05T00:17:46;5.80;;;2.70;;
30133;SDS011;16946;49.984;10.672;2023-03-05T00:18:16;4.30;;;2.80;;
30133;SDS011;16946;49.984;10.672;2023-03-05T00:18:48;4.90;;;2.65;;
30133;SDS011;16946;49.984;10.672;2023-03-05T00:19:19;5.20;;;2.90;;
30133;SDS011;16946;49.984;10.672;2023-03-05T00:19:49;4.77;;;2.93;;
30133;SDS011;16946;49.984;10.672;2023-03-05T00:20:20;5.70;;;3.23;;
30133;SDS011;16946;49.984;10.672;2023-03-05T00:20:51;6.87;;;2.67;;
30133;SDS011;16946;49.984;10.672;2023-03-05T00:21:23;5.70;;;2.90;;
30133;SDS011;16946;49.984;10.672;2023-03-05T00:21:55;5.82;;;2.65;;
30133;SDS011;16946;49.984;10.672;2023-03-05T00:22:25;4.43;;;2.50;;
30133;SDS011;16946;49.984;10.672;2023-03-05T00:22:56;4.23;;;2.10;;
30133;SDS011;16946;49.984;10.672;2023-03-05T00:23:27;4.73;;;2.43;;
30133;SDS011;16946;49.984;10.672;2023-03-05T00:23:58;3.90;;;1.93;;
30133;SDS011;16946;49.984;10.672;2023-03-05T00:24:32;4.30;;;2.30;;
30133;SDS011;16946;49.984;10.672;2023-03-05T00:25:03;4.90;;;2.17;;
30133;SDS011;16946;49.984;10.672;2023-03-05T00:25:35;7.45;;;2.58;;
30133;SDS011;16946;49.984;10.672;2023-03-05T00:26:05;2.72;;;2.10;;
30133;SDS011;16946;49.984;10.672;2023-03-05T00:26:36;5.23;;;2.40;;
30133;SDS011;16946;49.984;10.672;2023-03-05T00:27:08;4.57;;;2.10;;
30133;SDS011;16946;49.984;10.672;2023-03-05T00:27:38;7.10;;;2.13;;
30133;SDS011;16946;49.984;10.672;2023-03-05T00:28:09;3.43;;;2.10;;
30133;SDS011;16946;49.984;10.672;2023-03-05T00:28:39;3.20;;;2.13;;
30133;SDS011;16946;49.984;10.672;2023-03-05T00:29:11;4.63;;;1.90;;
30133;SDS011;16946;49.984;10.672;2023-03-05T00:29:44;5.50;;;2.28;;
30133;SDS011;16946;49.984;10.672;2023-03-05T00:30:15;5.83;;;2.20;;
30133;SDS011;16946;49.984;10.672;2023-03-05T00:30:45;5.47;;;2.77;;
30133;SDS011;16946;49.984;10.672;2023-03-05T00:31:16;4.43;;;2.23;;
30133;SDS011;16946;49.984;10.672;2023-03-05T00:31:52;4.18;;;2.15;;
30133;SDS011;16946;49.984;10.672;2023-03-05T00:32:22;4.13;;;2.13;;
30133;SDS011;16946;49.984;10.672;2023-03-05T00:32:53;4.50;;;2.20;;
30133;SDS011;16946;49.984;10.672;2023-03-05T00:33:24;3.23;;;1.83;;
30133;SDS011;16946;49.984;10.672;2023-03-05T00:33:55;6.13;;;2.40;;
30133;SDS011;16946;49.984;10.672;2023-03-05T00:34:30;4.35;;;1.83;;
30133;SDS011;16946;49.984;10.672;2023-03-05T00:35:00;7.27;;;2.00;;
30133;SDS011;16946;49.984;10.672;2023-03-05T00:35:31;5.13;;;2.20;;
30133;SDS011;16946;49.984;10.672;2023-03-05T00:36:07;5.75;;;2.00;;
30133;SDS011;16946;49.984;10.672;2023-03-05T00:36:42;6.45;;;2.20;;
30133;SDS011;16946;49.984;10.672;2023-03-05T00:37:14;4.70;;;2.00;;
30133;SDS011;16946;49.984;10.672;2023-03-05T00:37:45;6.00;;;1.92;;
30133;SDS011;16946;49.984;10.672;2023-03-05T00:38:16;3.17;;;1.90;;
30133;SDS011;16946;49.984;10.672;2023-03-05T00:38:47;4.10;;;2.07;;
30133;SDS011;16946;49.984;10.672;2023-03-05T00:39:18;6.40;;;1.75;;
30133;SDS011;16946;49.984;10.672;2023-03-05T00:39:50;4.00;;;1.83;;
30133;SDS011;16946;49.984;10.672;2023-03-05T00:40:20;2.20;;;1.77;;
30133;SDS011;16946;49.984;10.672;2023-03-05T00:40:51;5.73;;;1.93;;
30133;SDS011;16946;49.984;10.672;2023-03-05T00:41:21;4.33;;;2.13;;
30133;SDS011;16946;49.984;10.672;2023-03-05T00:41:52;3.77;;;1.90;;
30133;SDS011;16946;49.984;10.672;2023-03-05T00:42:23;4.23;;;1.97;;
30133;SDS011;16946;49.984;10.672;2023-03-05T00:42:53;5.00;;;1.80;;
30133;SDS011;16946;49.984;10.672;2023-03-05T00:43:24;5.57;;;2.23;;
30133;SDS011;16946;49.984;10.672;2023-03-05T00:43:54;3.53;;;1.80;;
30133;SDS011;16946;49.984;10.672;2023-03-05T00:44:25;5.90;;;1.60;;
30133;SDS011;16946;49.984;10.672;2023-03-05T00:44:55;5.67;;;2.67;;
30133;SDS011;16946;49.984;10.672;2023-03-05T00:45:26;5.50;;;1.90;;
30133;SDS011;16946;49.984;10.672;2023-03-05T00:45:56;5.17;;;2.37;;
30133;SDS011;16946;49.984;10.672;2023-03-05T00:46:27;3.73;;;1.60;;
30133;SDS011;16946;49.984;10.672;2023-03-05T00:46:57;4.00;;;2.07;;
30133;SDS011;16946;49.984;10.672;2023-03-05T00:47:28;6.10;;;1.90;;
30133;SDS011;16946;49.984;10.672;2023-03-05T00:47:59;4.67;;;1.87;;
30133;SDS011;16946;49.984;10.672;2023-03-05T00:48:29;4.10;;;2.13;;
30133;SDS011;16946;49.984;10.672;2023-03-05T00:49:00;5.47;;;2.17;;
30133;SDS011;16946;49.984;10.672;2023-03-05T00:49:30;5.10;;;2.07;;
30133;SDS011;16946;49.984;10.672;2023-03-05T00:50:01;2.93;;;2.00;;
30133;SDS011;16946;49.984;10.672;2023-03-05T00:50:33;4.10;;;1.70;;
30133;SDS011;16946;49.984;10.672;2023-03-05T00:51:03;3.17;;;2.20;;
30133;SDS011;16946;49.984;10.672;2023-03-05T00:51:34;4.13;;;1.80;;
30133;SDS011;16946;49.984;10.672;2023-03-05T00:52:05;5.17;;;2.00;;
30133;SDS011;16946;49.984;10.672;2023-03-05T00:52:35;3.63;;;1.70;;
30133;SDS011;16946;49.984;10.672;2023-03-05T00:53:06;3.00;;;1.70;;
30133;SDS011;16946;49.984;10.672;2023-03-05T00:53:36;6.03;;;1.70;;
30133;SDS011;16946;49.984;10.672;2023-03-05T00:54:07;4.20;;;1.90;;
30133;SDS011;16946;49.984;10.672;2023-03-05T00:54:37;3.93;;;1.90;;
30133;SDS011;16946;49.984;10.672;2023-03-05T00:55:08;3.80;;;1.77;;
30133;SDS011;16946;49.984;10.672;2023-03-05T00:55:39;5.17;;;1.60;;
30133;SDS011;16946;49.984;10.672;2023-03-05T00:56:09;5.37;;;1.87;;
30133;SDS011;16946;49.984;10.672;2023-03-05T00:56:40;5.78;;;1.90;;
30133;SDS011;16946;49.984;10.672;2023-03-05T00:57:11;5.23;;;2.23;;
30133;SDS011;16946;49.984;10.672;2023-03-05T00:57:41;3.20;;;1.70;;
30133;SDS011;16946;49.984;10.672;2023-03-05T00:58:12;3.97;;;2.00;;
30133;SDS011;16946;49.984;10.672;2023-03-05T00:58:42;4.33;;;1.77;;
30133;SDS011;16946;49.984;10.672;2023-03-05T00:59:13;2.53;;;1.67;;
30133;SDS011;16946;49.984;10.672;2023-03-05T00:59:44;3.70;;;1.73;;
30133;SDS011;16946;49.984;10.672;2023-03-05T01:00:15;3.50;;;2.00;;
30133;SDS011;16946;49.984;10.672;2023-03-05T01:00:46;4.25;;;2.05;;
30133;SDS011;16946;49.984;10.672;2023-03-05T01:01:19;4.43;;;1.80;;
30133;SDS011;16946;49.984;10.672;2023-03-05T01:01:50;3.43;;;1.70;;
30133;SDS011;16946;49.984;10.672;2023-03-05T01:02:20;6.17;;;2.40;;
30133;SDS011;16946;49.984;10.672;2023-03-05T01:02:51;2.73;;;1.80;;
30133;SDS011;16946;49.984;10.672;2023-03-05T01:03:21;6.77;;;2.17;;
30133;SDS011;16946;49.984;10.672;2023-03-05T01:03:52;5.23;;;1.80;;
30133;SDS011;16946;49.984;10.672;2023-03-05T01:04:25;4.07;;;1.70;;
30133;SDS011;16946;49.984;10.672;2023-03-05T01:04:55;4.97;;;1.87;;
30133;SDS011;16946;49.984;10.672;2023-03-05T01:05:26;5.73;;;1.97;;
30133;SDS011;16946;49.984;10.672;2023-03-05T01:05:56;4.23;;;1.53;;
30133;SDS011;16946;49.984;10.672;2023-03-05T01:06:27;4.70;;;1.70;;
30133;SDS011;16946;49.984;10.672;2023-03-05T01:06:58;3.90;;;1.67;;
30133;SDS011;16946;49.984;10.672;2023-03-05T01:07:29;5.20;;;2.00;;
30133;SDS011;16946;49.984;10.672;2023-03-05T01:07:59;2.70;;;1.90;;
30133;SDS011;16946;49.984;10.672;2023-03-05T01:08:30;4.87;;;2.00;;
30133;SDS011;16946;49.984;10.672;2023-03-05T01:09:00;4.17;;;1.90;;
30133;SDS011;16946;49.984;10.672;2023-03-05T01:09:31;4.13;;;1.90;;
30133;SDS011;16946;49.984;10.672;2023-03-05T01:10:02;5.07;;;1.80;;
30133;SDS011;16946;49.984;10.672;2023-03-05T01:10:32;4.63;;;2.43;;
30133;SDS011;16946;49.984;10.672;2023-03-05T01:11:03;3.13;;;1.90;;
30133;SDS011;16946;49.984;10.672;2023-03-05T01:11:35;4.47;;;1.80;;
30133;SDS011;16946;49.984;10.672;2023-03-05T01:12:06;4.63;;;2.00;;
30133;SDS011;16946;49.984;10.672;2023-03-05T01:12:37;4.70;;;1.80;;
30133;SDS011;16946;49.984;10.672;2023-03-05T01:13:08;5.32;;;1.58;;
30133;SDS011;16946;49.984;10.672;2023-03-05T01:13:39;3.87;;;2.00;;
30133;SDS011;16946;49.984;10.672;2023-03-05T01:14:10;6.47;;;1.77;;
30133;SDS011;16946;49.984;10.672;2023-03-05T01:14:40;5.33;;;1.60;;
30133;SDS011;16946;49.984;10.672;2023-03-05T01:15:11;6.97;;;1.67;;
30133;SDS011;16946;49.984;10.672;2023-03-05T01:15:41;4.60;;;1.77;;
30133;SDS011;16946;49.984;10.672;2023-03-05T01:16:12;3.90;;;1.60;;
30133;SDS011;16946;49.984;10.672;2023-03-05T01:16:42;4.03;;;1.37;;
30133;SDS011;16946;49.984;10.672;2023-03-05T01:17:13;5.83;;;1.77;;
30133;SDS011;16946;49.984;10.672;2023-03-05T01:17:44;3.57;;;1.67;;
30133;SDS011;16946;49.984;10.672;2023-03-05T01:18:14;3.53;;;1.60;;
30133;SDS011;16946;49.984;10.672;2023-03-05T01:18:45;3.00;;;2.20;;
30133;SDS011;16946;49.984;10.672;2023-03-05T01:19:15;3.57;;;1.73;;
30133;SDS011;16946;49.984;10.672;2023-03-05T01:19:46;4.37;;;1.90;;
30133;SDS011;16946;49.984;10.672;2023-03-05T01:20:17;4.00;;;1.60;;
30133;SDS011;16946;49.984;10.672;2023-03-05T01:20:49;4.30;;;1.88;;
30133;SDS011;16946;49.984;10.672;2023-03-05T01:21:19;7.70;;;2.20;;
30133;SDS011;16946;49.984;10.672;2023-03-05T01:21:50;4.53;;;1.70;;
30133;SDS011;16946;49.984;10.672;2023-03-05T01:22:21;4.73;;;1.90;;
30133;SDS011;16946;49.984;10.672;2023-03-05T01:22:52;6.93;;;1.80;;
30133;SDS011;16946;49.984;10.672;2023-03-05T01:23:22;3.47;;;1.67;;
30133;SDS011;16946;49.984;10.672;2023-03-05T01:23:53;4.07;;;1.77;;
30133;SDS011;16946;49.984;10.672;2023-03-05T01:24:24;4.00;;;1.50;;
30133;SDS011;16946;49.984;10.672;2023-03-05T01:24:54;4.83;;;1.70;;
30133;SDS011;16946;49.984;10.672;2023-03-05T01:25:25;3.80;;;1.87;;
30133;SDS011;16946;49.984;10.672;2023-03-05T01:25:57;4.68;;;1.55;;
30133;SDS011;16946;49.984;10.672;2023-03-05T01:26:29;4.53;;;1.80;;
30133;SDS011;16946;49.984;10.672;2023-03-05T01:26:59;4.33;;;1.63;;
30133;SDS011;16946;49.984;10.672;2023-03-05T01:27:30;6.03;;;1.70;;
30133;SDS011;16946;49.984;10.672;2023-03-05T01:28:00;2.90;;;1.47;;
30133;SDS011;16946;49.984;10.672;2023-03-05T01:28:31;5.85;;;1.63;;
30133;SDS011;16946;49.984;10.672;2023-03-05T01:29:02;4.50;;;1.87;;
30133;SDS011;16946;49.984;10.672;2023-03-05T01:29:33;6.30;;;1.83;;
30133;SDS011;16946;49.984;10.672;2023-03-05T01:30:05;4.38;;;2.63;;
30133;SDS011;16946;49.984;10.672;2023-03-05T01:30:36;4.93;;;2.20;;
30133;SDS011;16946;49.984;10.672;2023-03-05T01:31:08;6.63;;;2.23;;
30133;SDS011;16946;49.984;10.672;2023-03-05T01:31:39;3.10;;;1.77;;
30133;SDS011;16946;49.984;10.672;2023-03-05T01:32:10;4.93;;;1.73;;
30133;SDS011;16946;49.984;10.672;2023-03-05T01:32:41;3.77;;;2.00;;
30133;SDS011;16946;49.984;10.672;2023-03-05T01:33:11;3.92;;;1.92;;
30133;SDS011;16946;49.984;10.672;2023-03-05T01:33:42;4.93;;;2.03;;
30133;SDS011;16946;49.984;10.672;2023-03-05T01:34:13;3.60;;;1.93;;
30133;SDS011;16946;49.984;10.672;2023-03-05T01:34:43;5.53;;;1.87;;
30133;SDS011;16946;49.984;10.672;2023-03-05T01:35:15;4.30;;;2.10;;
30133;SDS011;16946;49.984;10.672;2023-03-05T01:35:48;2.42;;;1.52;;
30133;SDS011;16946;49.984;10.672;2023-03-05T01:36:19;3.78;;;1.58;;
30133;SDS011;16946;49.984;10.672;2023-03-05T01:36:50;3.13;;;1.70;;
30133;SDS011;16946;49.984;10.672;2023-03-05T01:37:21;6.07;;;2.20;;
30133;SDS011;16946;49.984;10.672;2023-03-05T01:37:52;4.57;;;1.70;;
30133;SDS011;16946;49.984;10.672;2023-03-05T01:38:23;3.97;;;1.70;;
30133;SDS011;16946;49.984;10.672;2023-03-05T01:38:53;4.73;;;1.57;;
30133;SDS011;16946;49.984;10.672;2023-03-05T01:39:24;5.17;;;2.10;;
30133;SDS011;16946;49.984;10.672;2023-03-05T01:39:54;3.40;;;1.60;;
30133;SDS011;16946;49.984;10.672;2023-03-05T01:40:27;4.43;;;1.77;;
30133;SDS011;16946;49.984;10.672;2023-03-05T01:40:59;4.35;;;1.90;;
30133;SDS011;16946;49.984;10.672;2023-03-05T01:41:30;3.33;;;1.77;;
30133;SDS011;16946;49.984;10.672;2023-03-05T01:42:02;6.10;;;1.70;;
30133;SDS011;16946;49.984;10.672;2023-03-05T01:42:34;3.05;;;1.85;;
30133;SDS011;16946;49.984;10.672;2023-03-05T01:43:12;3.77;;;2.00;;
30133;SDS011;16946;49.984;10.672;2023-03-05T01:43:56;3.20;;;1.55;;
30133;SDS011;16946;49.984;10.672;2023-03-05T01:44:27;4.23;;;1.93;;
30133;SDS011;16946;49.984;10.672;2023-03-05T01:45:00;4.43;;;2.08;;
30133;SDS011;16946;49.984;10.672;2023-03-05T01:45:33;4.13;;;2.00;;
30133;SDS011;16946;49.984;10.672;2023-03-05T01:47:03;6.80;;;2.03;;
30133;SDS011;16946;49.984;10.672;2023-03-05T01:47:34;5.20;;;2.27;;
30133;SDS011;16946;49.984;10.672;2023-03-05T01:48:05;4.45;;;2.15;;
30133;SDS011;16946;49.984;10.672;2023-03-05T01:48:36;4.07;;;1.90;;
30133;SDS011;16946;49.984;10.672;2023-03-05T01:49:18;4.30;;;2.10;;
30133;SDS011;16946;49.984;10.672;2023-03-05T01:49:53;5.93;;;1.73;;
30133;SDS011;16946;49.984;10.672;2023-03-05T01:50:24;2.83;;;1.63;;
30133;SDS011;16946;49.984;10.672;2023-03-05T01:50:56;3.75;;;2.22;;
30133;SDS011;16946;49.984;10.672;2023-03-05T01:51:28;5.20;;;2.23;;
30133;SDS011;16946;49.984;10.672;2023-03-05T01:52:15;4.80;;;1.90;;
30133;SDS011;16946;49.984;10.672;2023-03-05T01:52:49;3.78;;;2.15;;
30133;SDS011;16946;49.984;10.672;2023-03-05T01:53:27;4.47;;;1.92;;
30133;SDS011;16946;49.984;10.672;2023-03-05T01:53:58;5.65;;;2.20;;
30133;SDS011;16946;49.984;10.672;2023-03-05T01:54:41;4.40;;;1.80;;
30133;SDS011;16946;49.984;10.672;2023-03-05T01:55:15;4.90;;;1.95;;
30133;SDS011;16946;49.984;10.672;2023-03-05T01:55:48;6.40;;;2.03;;
30133;SDS011;16946;49.984;10.672;2023-03-05T01:56:19;4.53;;;1.97;;
30133;SDS011;16946;49.984;10.672;2023-03-05T01:56:50;5.10;;;2.00;;
30133;SDS011;16946;49.984;10.672;2023-03-05T01:57:29;5.18;;;1.90;;
30133;SDS011;16946;49.984;10.672;2023-03-05T01:58:07;11.18;;;2.05;;
30133;SDS011;16946;49.984;10.672;2023-03-05T01:58:42;5.50;;;2.15;;
30133;SDS011;16946;49.984;10.672;2023-03-05T01:59:14;3.22;;;1.70;;
30133;SDS011;16946;49.984;10.672;2023-03-05T01:59:46;3.50;;;1.90;;
30133;SDS011;16946;49.984;10.672;2023-03-05T02:00:23;5.00;;;1.77;;
30133;SDS011;16946;49.984;10.672;2023-03-05T02:00:56;5.95;;;2.00;;
30133;SDS011;16946;49.984;10.672;2023-03-05T02:01:27;5.07;;;1.87;;
30133;SDS011;16946;49.984;10.672;2023-03-05T02:02:02;4.82;;;1.80;;
30133;SDS011;16946;49.984;10.672;2023-03-05T02:02:35;5.07;;;1.80;;
30133;SDS011;16946;49.984;10.672;2023-03-05T02:03:06;5.10;;;1.90;;
30133;SDS011;16946;49.984;10.672;2023-03-05T02:03:38;4.70;;;2.25;;
30133;SDS011;16946;49.984;10.672;2023-03-05T02:04:10;4.57;;;1.70;;
30133;SDS011;16946;49.984;10.672;2023-03-05T02:04:51;3.97;;;1.83;;
30133;SDS011;16946;49.984;10.672;2023-03-05T02:05:29;5.15;;;1.80;;
30133;SDS011;16946;49.984;10.672;2023-03-05T02:06:02;6.10;;;1.85;;
30133;SDS011;16946;49.984;10.672;2023-03-05T02:06:32;3.43;;;1.70;;
30133;SDS011;16946;49.984;10.672;2023-03-05T02:07:04;3.58;;;1.83;;
30133;SDS011;16946;49.984;10.672;2023-03-05T02:07:35;4.60;;;2.03;;
30133;SDS011;16946;49.984;10.672;2023-03-05T02:08:08;3.25;;;1.75;;
30133;SDS011;16946;49.984;10.672;2023-03-05T02:08:40;4.15;;;1.85;;
30133;SDS011;16946;49.984;10.672;2023-03-05T02:09:11;4.73;;;1.73;;
30133;SDS011;16946;49.984;10.672;2023-03-05T02:09:42;3.80;;;2.20;;
30133;SDS011;16946;49.984;10.672;2023-03-05T02:10:57;5.30;;;2.33;;
30133;SDS011;16946;49.984;10.672;2023-03-05T02:11:29;3.03;;;1.55;;
30133;SDS011;16946;49.984;10.672;2023-03-05T02:11:59;4.77;;;2.40;;
30133;SDS011;16946;49.984;10.672;2023-03-05T02:12:30;6.33;;;2.07;;
30133;SDS011;16946;49.984;10.672;2023-03-05T02:13:01;3.90;;;1.70;;
30133;SDS011;16946;49.984;10.672;2023-03-05T02:13:37;5.85;;;1.77;;
30133;SDS011;16946;49.984;10.672;2023-03-05T02:14:09;5.65;;;2.05;;
30133;SDS011;16946;49.984;10.672;2023-03-05T02:14:40;5.03;;;2.33;;
30133;SDS011;16946;49.984;10.672;2023-03-05T02:15:14;5.45;;;1.95;;
30133;SDS011;16946;49.984;10.672;2023-03-05T02:15:45;4.97;;;2.05;;
30133;SDS011;16946;49.984;10.672;2023-03-05T02:16:16;5.97;;;1.80;;
30133;SDS011;16946;49.984;10.672;2023-03-05T02:16:47;3.10;;;1.90;;
30133;SDS011;16946;49.984;10.672;2023-03-05T02:17:17;9.00;;;2.13;;
30133;SDS011;16946;49.984;10.672;2023-03-05T02:17:48;6.47;;;1.97;;
30133;SDS011;16946;49.984;10.672;2023-03-05T02:18:19;3.33;;;1.97;;
30133;SDS011;16946;49.984;10.672;2023-03-05T02:18:50;5.57;;;1.95;;
30133;SDS011;16946;49.984;10.672;2023-03-05T02:19:21;3.43;;;2.07;;
30133;SDS011;16946;49.984;10.672;2023-03-05T02:19:52;4.87;;;1.90;;
30133;SDS011;16946;49.984;10.672;2023-03-05T02:20:26;3.70;;;1.98;;
30133;SDS011;16946;49.984;10.672;2023-03-05T02:21:43;4.70;;;1.98;;
30133;SDS011;16946;49.984;10.672;2023-03-05T02:22:16;3.20;;;1.50;;
30133;SDS011;16946;49.984;10.672;2023-03-05T02:22:48;5.10;;;1.75;;
30133;SDS011;16946;49.984;10.672;2023-03-05T02:23:19;4.43;;;2.13;;
30133;SDS011;16946;49.984;10.672;2023-03-05T02:23:51;4.57;;;1.70;;
30133;SDS011;16946;49.984;10.672;2023-03-05T02:24:32;4.23;;;1.87;;
30133;SDS011;16946;49.984;10.672;2023-03-05T02:25:11;3.08;;;1.90;;
30133;SDS011;16946;49.984;10.672;2023-03-05T02:25:46;3.97;;;1.67;;
30133;SDS011;16946;49.984;10.672;2023-03-05T02:26:17;4.50;;;1.73;;
30133;SDS011;16946;49.984;10.672;2023-03-05T02:26:47;2.73;;;1.77;;
30133;SDS011;16946;49.984;10.672;2023-03-05T02:27:19;3.40;;;1.77;;
30133;SDS011;16946;49.984;10.672;2023-03-05T02:28:05;3.58;;;1.90;;
30133;SDS011;16946;49.984;10.672;2023-03-05T02:28:52;4.80;;;1.92;;
30133;SDS011;16946;49.984;10.672;2023-03-05T02:29:27;4.07;;;1.50;;
30133;SDS011;16946;49.984;10.672;2023-03-05T02:29:59;5.93;;;1.67;;
30133;SDS011;16946;49.984;10.672;2023-03-05T02:30:31;6.55;;;1.98;;
30133;SDS011;16946;49.984;10.672;2023-03-05T02:31:06;5.43;;;2.10;;
30133;SDS011;16946;49.984;10.672;2023-03-05T02:31:39;4.40;;;2.47;;
30133;SDS011;16946;49.984;10.672;2023-03-05T02:32:11;4.87;;;2.70;;
30133;SDS011;16946;49.984;10.672;2023-03-05T02:32:42;3.55;;;1.90;;
30133;SDS011;16946;49.984;10.672;2023-03-05T02:33:13;4.07;;;1.97;;
30133;SDS011;16946;49.984;10.672;2023-03-05T02:33:45;3.80;;;1.63;;
30133;SDS011;16946;49.984;10.672;2023-03-05T02:34:16;3.45;;;1.70;;
30133;SDS011;16946;49.984;10.672;2023-03-05T02:34:47;4.38;;;1.90;;
30133;SDS011;16946;49.984;10.672;2023-03-05T02:35:18;3.70;;;1.60;;
30133;SDS011;16946;49.984;10.672;2023-03-05T02:35:48;3.73;;;1.57;;
30133;SDS011;16946;49.984;10.672;2023-03-05T02:36:19;4.53;;;1.90;;
30133;SDS011;16946;49.984;10.672;2023-03-05T02:36:50;3.43;;;1.50;;
30133;SDS011;16946;49.984;10.672;2023-03-05T02:37:20;4.47;;;2.03;;
30133;SDS011;16946;49.984;10.672;2023-03-05T02:37:51;4.33;;;1.60;;
30133;SDS011;16946;49.984;10.672;2023-03-05T02:38:22;3.33;;;1.93;;
30133;SDS011;16946;49.984;10.672;2023-03-05T02:38:52;3.57;;;1.60;;
30133;SDS011;16946;49.984;10.672;2023-03-05T02:39:25;5.35;;;1.75;;
30133;SDS011;16946;49.984;10.672;2023-03-05T02:39:56;5.07;;;1.90;;
30133;SDS011;16946;49.984;10.672;2023-03-05T02:40:27;3.37;;;1.40;;
30133;SDS011;16946;49.984;10.672;2023-03-05T02:40:57;4.57;;;2.20;;
30133;SDS011;16946;49.984;10.672;2023-03-05T02:41:28;3.07;;;1.57;;
30133;SDS011;16946;49.984;10.672;2023-03-05T02:41:58;4.83;;;1.80;;
30133;SDS011;16946;49.984;10.672;2023-03-05T02:42:29;4.50;;;1.83;;
30133;SDS011;16946;49.984;10.672;2023-03-05T02:43:02;3.15;;;1.50;;
30133;SDS011;16946;49.984;10.672;2023-03-05T02:43:33;2.77;;;1.60;;
30133;SDS011;16946;49.984;10.672;2023-03-05T02:44:04;2.40;;;1.47;;
30133;SDS011;16946;49.984;10.672;2023-03-05T02:44:34;4.77;;;1.40;;
30133;SDS011;16946;49.984;10.672;2023-03-05T02:45:05;6.33;;;2.60;;
30133;SDS011;16946;49.984;10.672;2023-03-05T02:45:36;3.70;;;1.80;;
30133;SDS011;16946;49.984;10.672;2023-03-05T02:46:08;3.75;;;1.77;;
30133;SDS011;16946;49.984;10.672;2023-03-05T02:46:38;3.27;;;1.80;;
30133;SDS011;16946;49.984;10.672;2023-03-05T02:47:09;3.60;;;1.53;;
30133;SDS011;16946;49.984;10.672;2023-03-05T02:47:39;5.40;;;1.80;;
30133;SDS011;16946;49.984;10.672;2023-03-05T02:48:10;3.90;;;1.87;;
30133;SDS011;16946;49.984;10.672;2023-03-05T02:48:40;4.10;;;1.83;;
30133;SDS011;16946;49.984;10.672;2023-03-05T02:49:11;3.00;;;1.33;;
30133;SDS011;16946;49.984;10.672;2023-03-05T02:49:41;2.57;;;1.40;;
30133;SDS011;16946;49.984;10.672;2023-03-05T02:50:12;3.23;;;1.73;;
30133;SDS011;16946;49.984;10.672;2023-03-05T02:50:43;2.47;;;1.53;;
30133;SDS011;16946;49.984;10.672;2023-03-05T02:51:15;4.88;;;1.73;;
30133;SDS011;16946;49.984;10.672;2023-03-05T02:51:46;4.82;;;1.50;;
30133;SDS011;16946;49.984;10.672;2023-03-05T02:52:16;4.77;;;1.90;;
30133;SDS011;16946;49.984;10.672;2023-03-05T02:52:47;4.93;;;1.70;;
30133;SDS011;16946;49.984;10.672;2023-03-05T02:53:17;4.77;;;1.80;;
30133;SDS011;16946;49.984;10.672;2023-03-05T02:53:48;3.90;;;1.90;;
30133;SDS011;16946;49.984;10.672;2023-03-05T02:54:18;2.43;;;1.50;;
30133;SDS011;16946;49.984;10.672;2023-03-05T02:54:49;3.43;;;1.63;;
30133;SDS011;16946;49.984;10.672;2023-03-05T02:55:21;3.25;;;1.55;;
30133;SDS011;16946;49.984;10.672;2023-03-05T02:55:51;2.23;;;1.30;;
30133;SDS011;16946;49.984;10.672;2023-03-05T02:56:22;3.97;;;1.50;;
30133;SDS011;16946;49.984;10.672;2023-03-05T02:56:52;3.63;;;1.77;;
30133;SDS011;16946;49.984;10.672;2023-03-05T02:57:23;3.97;;;1.40;;
30133;SDS011;16946;49.984;10.672;2023-03-05T02:57:54;3.00;;;1.50;;
30133;SDS011;16946;49.984;10.672;2023-03-05T02:58:24;2.57;;;1.43;;
30133;SDS011;16946;49.984;10.672;2023-03-05T02:58:55;2.60;;;1.33;;
30133;SDS011;16946;49.984;10.672;2023-03-05T02:59:25;4.70;;;1.60;;
30133;SDS011;16946;49.984;10.672;2023-03-05T02:59:56;3.13;;;1.70;;
30133;SDS011;16946;49.984;10.672;2023-03-05T03:00:26;4.80;;;1.90;;
30133;SDS011;16946;49.984;10.672;2023-03-05T03:00:57;3.10;;;1.60;;
30133;SDS011;16946;49.984;10.672;2023-03-05T03:01:27;4.60;;;1.60;;
30133;SDS011;16946;49.984;10.672;2023-03-05T03:01:58;5.77;;;1.70;;
30133;SDS011;16946;49.984;10.672;2023-03-05T03:02:29;3.83;;;1.47;;
30133;SDS011;16946;49.984;10.672;2023-03-05T03:02:59;5.97;;;2.23;;
30133;SDS011;16946;49.984;10.672;2023-03-05T03:03:30;4.63;;;1.60;;
30133;SDS011;16946;49.984;10.672;2023-03-05T03:04:00;4.63;;;1.83;;
30133;SDS011;16946;49.984;10.672;2023-03-05T03:04:31;4.47;;;1.70;;
30133;SDS011;16946;49.984;10.672;2023-03-05T03:05:01;5.83;;;1.80;;
30133;SDS011;16946;49.984;10.672;2023-03-05T03:05:33;2.87;;;2.03;;
30133;SDS011;16946;49.984;10.672;2023-03-05T03:06:04;3.92;;;2.03;;
30133;SDS011;16946;49.984;10.672;2023-03-05T03:06:35;4.90;;;1.45;;
30133;SDS011;16946;49.984;10.672;2023-03-05T03:07:06;7.63;;;2.10;;
30133;SDS011;16946;49.984;10.672;2023-03-05T03:07:36;3.77;;;1.60;;
30133;SDS011;16946;49.984;10.672;2023-03-05T03:08:07;2.70;;;1.70;;
30133;SDS011;16946;49.984;10.672;2023-03-05T03:08:38;4.00;;;1.70;;
30133;SDS011;16946;49.984;10.672;2023-03-05T03:09:08;3.33;;;1.60;;
30133;SDS011;16946;49.984;10.672;2023-03-05T03:09:39;2.27;;;1.43;;